sensor_id;sensor_type;location;lat;lon;timestamp;pressure;altitude;pressure_sealevel;temperature;humidity
62402;BME280;48440;51.224;22.506;2023-02-13T00:01:14;100923.34;;;1.44;74.83
62402;BME280;48440;51.224;22.506;2023-02-13T00:03:40;100922.34;;;1.45;74.47
62402;BME280;48440;51.224;22.506;2023-02-13T00:06:05;100915.78;;;1.39;75.10
62402;BME280;48440;51.224;22.506;2023-02-13T00:08:31;100924.94;;;1.36;75.49
62402;BME280;48440;51.224;22.506;2023-02-13T00:10:56;100920.44;;;1.37;75.61
62402;BME280;48440;51.224;22.506;2023-02-13T00:13:21;100922.28;;;1.36;75.68
62402;BME280;48440;51.224;22.506;2023-02-13T00:15:58;100916.91;;;1.36;76.31
62402;BME280;48440;51.224;22.506;2023-02-13T00:18:25;100912.88;;;1.32;75.96
62402;BME280;48440;51.224;22.506;2023-02-13T00:21:20;100920.06;;;1.32;76.77
62402;BME280;48440;51.224;22.506;2023-02-13T00:23:45;100917.91;;;1.35;76.36
62402;BME280;48440;51.224;22.506;2023-02-13T00:26:13;100916.22;;;1.34;77.06
62402;BME280;48440;51.224;22.506;2023-02-13T00:28:39;100909.06;;;1.35;77.37
62402;BME280;48440;51.224;22.506;2023-02-13T00:31:13;100909.72;;;1.37;77.39
62402;BME280;48440;51.224;22.506;2023-02-13T00:33:39;100906.06;;;1.38;77.41
62402;BME280;48440;51.224;22.506;2023-02-13T00:36:11;100900.88;;;1.36;77.12
62402;BME280;48440;51.224;22.506;2023-02-13T00:38:38;100902.56;;;1.38;77.13
62402;BME280;48440;51.224;22.506;2023-02-13T00:41:04;100899.19;;;1.35;77.68
62402;BME280;48440;51.224;22.506;2023-02-13T00:43:30;100895.84;;;1.33;77.80
62402;BME280;48440;51.224;22.506;2023-02-13T00:45:56;100889.63;;;1.33;77.79
62402;BME280;48440;51.224;22.506;2023-02-13T00:48:26;100878.47;;;1.38;77.88
62402;BME280;48440;51.224;22.506;2023-02-13T00:50:52;100880.16;;;1.39;78.06
62402;BME280;48440;51.224;22.506;2023-02-13T00:53:19;100879.00;;;1.41;78.17
62402;BME280;48440;51.224;22.506;2023-02-13T00:55:45;100868.97;;;1.43;78.10
62402;BME280;48440;51.224;22.506;2023-02-13T00:58:10;100867.16;;;1.44;78.65
62402;BME280;48440;51.224;22.506;2023-02-13T01:00:36;100868.69;;;1.46;78.42
62402;BME280;48440;51.224;22.506;2023-02-13T01:03:02;100866.69;;;1.48;78.85
62402;BME280;48440;51.224;22.506;2023-02-13T01:05:28;100871.41;;;1.54;78.63
62402;BME280;48440;51.224;22.506;2023-02-13T01:07:53;100868.88;;;1.53;78.47
62402;BME280;48440;51.224;22.506;2023-02-13T01:10:19;100860.88;;;1.53;78.71
62402;BME280;48440;51.224;22.506;2023-02-13T01:12:44;100858.66;;;1.48;78.60
62402;BME280;48440;51.224;22.506;2023-02-13T01:15:10;100857.81;;;1.48;78.92
62402;BME280;48440;51.224;22.506;2023-02-13T01:17:36;100852.47;;;1.48;78.70
62402;BME280;48440;51.224;22.506;2023-02-13T01:20:08;100844.75;;;1.45;79.00
62402;BME280;48440;51.224;22.506;2023-02-13T01:22:34;100847.13;;;1.48;79.19
62402;BME280;48440;51.224;22.506;2023-02-13T01:24:59;100847.28;;;1.46;78.69
62402;BME280;48440;51.224;22.506;2023-02-13T01:27:26;100843.28;;;1.50;78.92
62402;BME280;48440;51.224;22.506;2023-02-13T01:29:52;100836.41;;;1.48;79.16
62402;BME280;48440;51.224;22.506;2023-02-13T01:32:18;100848.63;;;1.50;78.98
62402;BME280;48440;51.224;22.506;2023-02-13T01:34:43;100834.94;;;1.53;79.12
62402;BME280;48440;51.224;22.506;2023-02-13T01:37:09;100838.78;;;1.51;79.57
62402;BME280;48440;51.224;22.506;2023-02-13T01:39:34;100830.75;;;1.51;79.34
62402;BME280;48440;51.224;22.506;2023-02-13T01:42:00;100833.75;;;1.48;79.70
62402;BME280;48440;51.224;22.506;2023-02-13T01:47:21;100833.94;;;1.54;80.37
62402;BME280;48440;51.224;22.506;2023-02-13T01:49:50;100831.28;;;1.54;80.06
62402;BME280;48440;51.224;22.506;2023-02-13T01:52:19;100825.91;;;1.54;80.48
62402;BME280;48440;51.224;22.506;2023-02-13T01:54:45;100834.09;;;1.53;80.29
62402;BME280;48440;51.224;22.506;2023-02-13T01:57:18;100822.19;;;1.47;81.40
62402;BME280;48440;51.224;22.506;2023-02-13T01:59:54;100823.03;;;1.48;81.60
62402;BME280;48440;51.224;22.506;2023-02-13T02:02:22;100825.41;;;1.51;81.63
62402;BME280;48440;51.224;22.506;2023-02-13T02:04:48;100820.56;;;1.54;81.32
62402;BME280;48440;51.224;22.506;2023-02-13T02:07:23;100815.53;;;1.51;81.92
62402;BME280;48440;51.224;22.506;2023-02-13T02:09:53;100815.38;;;1.53;81.60
62402;BME280;48440;51.224;22.506;2023-02-13T02:12:41;100816.22;;;1.53;82.11
62402;BME280;48440;51.224;22.506;2023-02-13T02:15:08;100814.72;;;1.59;82.12
62402;BME280;48440;51.224;22.506;2023-02-13T02:17:33;100805.38;;;1.63;82.19
62402;BME280;48440;51.224;22.506;2023-02-13T02:34:50;100810.88;;;1.61;83.30
62402;BME280;48440;51.224;22.506;2023-02-13T02:37:43;100803.84;;;1.60;83.13
62402;BME280;48440;51.224;22.506;2023-02-13T02:45:48;100804.06;;;1.67;83.27
62402;BME280;48440;51.224;22.506;2023-02-13T02:48:28;100805.41;;;1.71;83.36
62402;BME280;48440;51.224;22.506;2023-02-13T02:54:12;100807.09;;;1.72;83.56
62402;BME280;48440;51.224;22.506;2023-02-13T02:57:03;100803.72;;;1.70;83.60
62402;BME280;48440;51.224;22.506;2023-02-13T02:59:31;100809.75;;;1.72;83.97
62402;BME280;48440;51.224;22.506;2023-02-13T03:02:17;100806.63;;;1.77;83.46
62402;BME280;48440;51.224;22.506;2023-02-13T03:05:02;100812.50;;;1.80;83.48
62402;BME280;48440;51.224;22.506;2023-02-13T03:07:46;100806.13;;;1.81;83.92
62402;BME280;48440;51.224;22.506;2023-02-13T03:10:21;100810.47;;;1.82;83.71
62402;BME280;48440;51.224;22.506;2023-02-13T03:13:11;100803.25;;;1.83;84.06
62402;BME280;48440;51.224;22.506;2023-02-13T03:15:51;100806.97;;;1.82;84.48
62402;BME280;48440;51.224;22.506;2023-02-13T03:18:38;100801.94;;;1.87;84.58
62402;BME280;48440;51.224;22.506;2023-02-13T03:24:31;100790.41;;;1.86;84.67
62402;BME280;48440;51.224;22.506;2023-02-13T03:30:03;100780.53;;;1.87;85.07
62402;BME280;48440;51.224;22.506;2023-02-13T03:32:47;100775.00;;;1.88;84.96
62402;BME280;48440;51.224;22.506;2023-02-13T03:40:50;100775.00;;;1.88;85.28
62402;BME280;48440;51.224;22.506;2023-02-13T03:43:47;100777.84;;;1.87;85.70
62402;BME280;48440;51.224;22.506;2023-02-13T03:46:17;100778.84;;;1.86;85.74
62402;BME280;48440;51.224;22.506;2023-02-13T03:48:45;100784.19;;;1.86;86.32
62402;BME280;48440;51.224;22.506;2023-02-13T03:51:32;100788.41;;;1.88;85.84
62402;BME280;48440;51.224;22.506;2023-02-13T03:54:03;100783.88;;;1.89;85.85
62402;BME280;48440;51.224;22.506;2023-02-13T03:56:32;100787.25;;;1.91;85.94
62402;BME280;48440;51.224;22.506;2023-02-13T03:59:23;100778.88;;;1.94;85.91
62402;BME280;48440;51.224;22.506;2023-02-13T04:02:11;100781.25;;;1.97;85.93
62402;BME280;48440;51.224;22.506;2023-02-13T04:04:39;100784.44;;;2.00;85.79
62402;BME280;48440;51.224;22.506;2023-02-13T04:07:11;100780.06;;;1.99;86.66
62402;BME280;48440;51.224;22.506;2023-02-13T04:09:54;100770.41;;;2.07;86.63
62402;BME280;48440;51.224;22.506;2023-02-13T04:12:42;100767.34;;;2.10;86.28
62402;BME280;48440;51.224;22.506;2023-02-13T04:15:20;100771.56;;;2.12;86.44
62402;BME280;48440;51.224;22.506;2023-02-13T04:18:16;100777.59;;;2.14;86.66
62402;BME280;48440;51.224;22.506;2023-02-13T04:20:43;100773.06;;;2.15;86.51
62402;BME280;48440;51.224;22.506;2023-02-13T04:23:10;100773.06;;;2.15;86.99
62402;BME280;48440;51.224;22.506;2023-02-13T04:25:38;100772.91;;;2.16;87.37
62402;BME280;48440;51.224;22.506;2023-02-13T04:28:04;100773.56;;;2.18;87.20
62402;BME280;48440;51.224;22.506;2023-02-13T04:30:29;100775.25;;;2.19;87.38
62402;BME280;48440;51.224;22.506;2023-02-13T04:32:55;100770.75;;;2.20;87.32
62402;BME280;48440;51.224;22.506;2023-02-13T04:35:20;100768.72;;;2.22;87.44
62402;BME280;48440;51.224;22.506;2023-02-13T04:37:46;100763.38;;;2.22;87.41
62402;BME280;48440;51.224;22.506;2023-02-13T04:40:12;100762.06;;;2.26;87.78
62402;BME280;48440;51.224;22.506;2023-02-13T04:42:38;100771.94;;;2.25;87.38
62402;BME280;48440;51.224;22.506;2023-02-13T04:45:03;100775.59;;;2.24;87.94
62402;BME280;48440;51.224;22.506;2023-02-13T04:47:29;100766.56;;;2.25;87.21
62402;BME280;48440;51.224;22.506;2023-02-13T04:49:54;100772.09;;;2.24;87.24
62402;BME280;48440;51.224;22.506;2023-02-13T04:52:20;100768.41;;;2.25;87.73
62402;BME280;48440;51.224;22.506;2023-02-13T04:54:45;100773.94;;;2.23;87.61
62402;BME280;48440;51.224;22.506;2023-02-13T04:57:11;100766.91;;;2.22;88.03
62402;BME280;48440;51.224;22.506;2023-02-13T04:59:36;100768.91;;;2.20;87.86
62402;BME280;48440;51.224;22.506;2023-02-13T05:02:02;100769.06;;;2.19;88.14
62402;BME280;48440;51.224;22.506;2023-02-13T05:04:27;100774.41;;;2.19;88.57
62402;BME280;48440;51.224;22.506;2023-02-13T05:06:53;100771.06;;;2.17;88.34
62402;BME280;48440;51.224;22.506;2023-02-13T05:09:19;100777.94;;;2.19;88.60
62402;BME280;48440;51.224;22.506;2023-02-13T05:11:44;100777.09;;;2.19;88.41
62402;BME280;48440;51.224;22.506;2023-02-13T05:14:10;100782.81;;;2.24;88.52
62402;BME280;48440;51.224;22.506;2023-02-13T05:16:35;100774.44;;;2.27;88.18
62402;BME280;48440;51.224;22.506;2023-02-13T05:19:01;100777.78;;;2.29;87.80
62402;BME280;48440;51.224;22.506;2023-02-13T05:21:26;100785.00;;;2.28;88.16
62402;BME280;48440;51.224;22.506;2023-02-13T05:24:10;100783.66;;;2.32;87.73
62402;BME280;48440;51.224;22.506;2023-02-13T05:26:36;100782.16;;;2.30;87.98
62402;BME280;48440;51.224;22.506;2023-02-13T05:29:01;100781.97;;;2.31;87.83
62402;BME280;48440;51.224;22.506;2023-02-13T05:31:46;100786.16;;;2.34;87.83
62402;BME280;48440;51.224;22.506;2023-02-13T05:34:11;100795.22;;;2.33;87.74
62402;BME280;48440;51.224;22.506;2023-02-13T05:36:37;100786.34;;;2.32;88.05
62402;BME280;48440;51.224;22.506;2023-02-13T05:39:02;100787.19;;;2.33;88.21
62402;BME280;48440;51.224;22.506;2023-02-13T05:41:28;100780.97;;;2.32;87.90
62402;BME280;48440;51.224;22.506;2023-02-13T05:43:53;100783.47;;;2.34;88.22
62402;BME280;48440;51.224;22.506;2023-02-13T05:46:19;100783.47;;;2.34;87.94
62402;BME280;48440;51.224;22.506;2023-02-13T05:48:44;100779.47;;;2.38;87.97
62402;BME280;48440;51.224;22.506;2023-02-13T05:51:10;100782.97;;;2.38;88.08
62402;BME280;48440;51.224;22.506;2023-02-13T05:53:35;100797.22;;;2.39;87.83
62402;BME280;48440;51.224;22.506;2023-02-13T05:56:04;100791.69;;;2.41;88.10
62402;BME280;48440;51.224;22.506;2023-02-13T05:58:30;100782.97;;;2.38;88.07
62402;BME280;48440;51.224;22.506;2023-02-13T06:00:56;100789.00;;;2.41;88.20
62402;BME280;48440;51.224;22.506;2023-02-13T06:03:23;100789.16;;;2.39;88.32
62402;BME280;48440;51.224;22.506;2023-02-13T06:05:49;100789.50;;;2.36;88.55
62402;BME280;48440;51.224;22.506;2023-02-13T06:08:15;100775.09;;;2.37;88.54
62402;BME280;48440;51.224;22.506;2023-02-13T06:10:40;100779.28;;;2.39;88.87
62402;BME280;48440;51.224;22.506;2023-02-13T06:13:05;100774.44;;;2.43;88.52
62402;BME280;48440;51.224;22.506;2023-02-13T06:15:31;100771.59;;;2.45;88.36
62402;BME280;48440;51.224;22.506;2023-02-13T06:17:56;100768.09;;;2.44;88.80
62402;BME280;48440;51.224;22.506;2023-02-13T06:20:22;100765.25;;;2.46;88.43
62402;BME280;48440;51.224;22.506;2023-02-13T06:22:49;100767.91;;;2.46;88.33
62402;BME280;48440;51.224;22.506;2023-02-13T06:25:15;100763.41;;;2.46;88.49
62402;BME280;48440;51.224;22.506;2023-02-13T06:27:40;100773.63;;;2.51;88.81
62402;BME280;48440;51.224;22.506;2023-02-13T06:30:06;100767.25;;;2.52;88.52
62402;BME280;48440;51.224;22.506;2023-02-13T06:32:32;100772.63;;;2.52;88.46
62402;BME280;48440;51.224;22.506;2023-02-13T06:34:57;100768.25;;;2.51;88.45
62402;BME280;48440;51.224;22.506;2023-02-13T06:37:23;100763.75;;;2.59;88.64
62402;BME280;48440;51.224;22.506;2023-02-13T06:39:48;100771.25;;;2.64;88.29
62402;BME280;48440;51.224;22.506;2023-02-13T06:42:14;100761.22;;;2.66;87.90
62402;BME280;48440;51.224;22.506;2023-02-13T06:44:39;100746.81;;;2.67;88.03
62402;BME280;48440;51.224;22.506;2023-02-13T06:47:05;100764.22;;;2.71;88.31
62402;BME280;48440;51.224;22.506;2023-02-13T06:49:30;100761.22;;;2.74;88.02
62402;BME280;48440;51.224;22.506;2023-02-13T06:51:56;100755.53;;;2.77;87.81
62402;BME280;48440;51.224;22.506;2023-02-13T06:54:21;100758.88;;;2.79;87.56
62402;BME280;48440;51.224;22.506;2023-02-13T06:56:47;100757.53;;;2.83;87.58
62402;BME280;48440;51.224;22.506;2023-02-13T06:59:12;100758.69;;;2.81;87.79
62402;BME280;48440;51.224;22.506;2023-02-13T07:01:38;100750.31;;;2.84;87.56
62402;BME280;48440;51.224;22.506;2023-02-13T07:04:09;100745.28;;;2.81;87.92
62402;BME280;48440;51.224;22.506;2023-02-13T07:06:34;100748.81;;;2.81;88.08
62402;BME280;48440;51.224;22.506;2023-02-13T07:09:02;100748.81;;;2.81;87.96
62402;BME280;48440;51.224;22.506;2023-02-13T07:11:28;100747.81;;;2.82;88.55
62402;BME280;48440;51.224;22.506;2023-02-13T07:13:53;100745.63;;;2.86;88.05
62402;BME280;48440;51.224;22.506;2023-02-13T07:16:19;100748.94;;;2.88;87.96
62402;BME280;48440;51.224;22.506;2023-02-13T07:18:44;100753.47;;;2.87;88.04
62402;BME280;48440;51.224;22.506;2023-02-13T07:21:09;100755.16;;;2.88;88.20
62402;BME280;48440;51.224;22.506;2023-02-13T07:23:35;100761.53;;;2.87;87.94
62402;BME280;48440;51.224;22.506;2023-02-13T07:26:01;100760.50;;;2.88;88.37
62402;BME280;48440;51.224;22.506;2023-02-13T07:28:28;100763.03;;;2.90;88.24
62402;BME280;48440;51.224;22.506;2023-02-13T07:30:54;100760.34;;;2.90;88.37
62402;BME280;48440;51.224;22.506;2023-02-13T07:33:20;100767.22;;;2.92;88.09
62402;BME280;48440;51.224;22.506;2023-02-13T07:35:46;100763.38;;;2.95;87.85
62402;BME280;48440;51.224;22.506;2023-02-13T07:38:12;100755.81;;;2.98;88.00
62402;BME280;48440;51.224;22.506;2023-02-13T07:40:38;100762.03;;;2.99;87.79
62402;BME280;48440;51.224;22.506;2023-02-13T07:43:04;100765.38;;;3.01;87.84
62402;BME280;48440;51.224;22.506;2023-02-13T07:45:29;100761.69;;;3.02;88.13
62402;BME280;48440;51.224;22.506;2023-02-13T07:47:56;100764.19;;;3.03;88.20
62402;BME280;48440;51.224;22.506;2023-02-13T07:50:22;100752.13;;;3.08;87.91
62402;BME280;48440;51.224;22.506;2023-02-13T07:52:59;100766.38;;;3.08;87.91
62402;BME280;48440;51.224;22.506;2023-02-13T07:55:28;100767.88;;;3.11;88.06
62402;BME280;48440;51.224;22.506;2023-02-13T07:57:54;100765.00;;;3.12;87.74
62402;BME280;48440;51.224;22.506;2023-02-13T08:00:20;100753.09;;;3.15;87.93
62402;BME280;48440;51.224;22.506;2023-02-13T08:02:46;100749.22;;;3.17;87.69
62402;BME280;48440;51.224;22.506;2023-02-13T08:05:12;100742.69;;;3.20;87.95
62402;BME280;48440;51.224;22.506;2023-02-13T08:07:38;100744.19;;;3.22;87.05
62402;BME280;48440;51.224;22.506;2023-02-13T08:10:06;100746.53;;;3.25;87.41
62402;BME280;48440;51.224;22.506;2023-02-13T08:12:51;100745.53;;;3.26;87.31
62402;BME280;48440;51.224;22.506;2023-02-13T08:15:17;100745.84;;;3.31;87.24
62402;BME280;48440;51.224;22.506;2023-02-13T08:17:43;100746.03;;;3.30;87.27
62402;BME280;48440;51.224;22.506;2023-02-13T08:20:09;100746.50;;;3.33;87.31
62402;BME280;48440;51.224;22.506;2023-02-13T08:22:38;100752.66;;;3.42;87.21
62402;BME280;48440;51.224;22.506;2023-02-13T08:25:04;100745.16;;;3.77;87.05
62402;BME280;48440;51.224;22.506;2023-02-13T08:27:30;100741.53;;;3.92;85.97
62402;BME280;48440;51.224;22.506;2023-02-13T08:29:57;100736.41;;;4.05;85.29
62402;BME280;48440;51.224;22.506;2023-02-13T08:32:23;100743.63;;;4.51;84.18
62402;BME280;48440;51.224;22.506;2023-02-13T08:34:49;100745.88;;;4.85;83.15
62402;BME280;48440;51.224;22.506;2023-02-13T08:37:15;100737.66;;;5.16;81.44
62402;BME280;48440;51.224;22.506;2023-02-13T08:39:40;100741.00;;;5.32;80.36
62402;BME280;48440;51.224;22.506;2023-02-13T08:42:06;100740.72;;;5.13;79.35
62402;BME280;48440;51.224;22.506;2023-02-13T08:44:31;100729.66;;;4.93;80.13
62402;BME280;48440;51.224;22.506;2023-02-13T08:46:57;100731.00;;;4.74;80.96
62402;BME280;48440;51.224;22.506;2023-02-13T08:49:22;100736.28;;;4.67;81.51
62402;BME280;48440;51.224;22.506;2023-02-13T08:51:49;100732.75;;;4.67;81.48
62402;BME280;48440;51.224;22.506;2023-02-13T08:54:15;100738.22;;;4.73;81.73
62402;BME280;48440;51.224;22.506;2023-02-13T08:56:41;100739.91;;;4.74;81.36
62402;BME280;48440;51.224;22.506;2023-02-13T08:59:07;100732.84;;;4.73;81.39
62402;BME280;48440;51.224;22.506;2023-02-13T09:01:36;100739.06;;;4.74;81.37
62402;BME280;48440;51.224;22.506;2023-02-13T09:04:01;100743.31;;;4.68;81.29
62402;BME280;48440;51.224;22.506;2023-02-13T09:06:27;100741.28;;;4.70;81.37
62402;BME280;48440;51.224;22.506;2023-02-13T09:08:53;100740.91;;;4.59;81.75
62402;BME280;48440;51.224;22.506;2023-02-13T09:11:18;100743.94;;;4.56;81.55
62402;BME280;48440;51.224;22.506;2023-02-13T09:13:47;100739.22;;;4.58;81.98
62402;BME280;48440;51.224;22.506;2023-02-13T09:16:12;100738.88;;;4.61;82.20
62402;BME280;48440;51.224;22.506;2023-02-13T09:18:38;100734.81;;;4.65;82.28
62402;BME280;48440;51.224;22.506;2023-02-13T09:21:06;100735.06;;;4.70;82.10
62402;BME280;48440;51.224;22.506;2023-02-13T09:23:34;100735.19;;;4.76;81.81
62402;BME280;48440;51.224;22.506;2023-02-13T09:26:02;100741.41;;;4.77;81.73
62402;BME280;48440;51.224;22.506;2023-02-13T09:28:32;100752.09;;;4.85;81.50
62402;BME280;48440;51.224;22.506;2023-02-13T09:30:57;100747.00;;;4.90;81.09
62402;BME280;48440;51.224;22.506;2023-02-13T09:33:24;100749.59;;;4.98;80.97
62402;BME280;48440;51.224;22.506;2023-02-13T09:35:49;100752.75;;;5.02;81.40
62402;BME280;48440;51.224;22.506;2023-02-13T09:38:15;100757.22;;;5.09;80.66
62402;BME280;48440;51.224;22.506;2023-02-13T09:40:53;100745.16;;;5.05;80.61
62402;BME280;48440;51.224;22.506;2023-02-13T09:43:33;100736.25;;;5.05;80.68
62402;BME280;48440;51.224;22.506;2023-02-13T09:46:11;100739.03;;;5.11;80.82
62402;BME280;48440;51.224;22.506;2023-02-13T09:48:39;100736.81;;;5.15;80.51
62402;BME280;48440;51.224;22.506;2023-02-13T09:51:05;100737.47;;;5.17;80.64
62402;BME280;48440;51.224;22.506;2023-02-13T09:53:31;100737.47;;;5.17;80.10
62402;BME280;48440;51.224;22.506;2023-02-13T09:56:16;100730.13;;;5.11;80.53
62402;BME280;48440;51.224;22.506;2023-02-13T09:58:48;100748.13;;;5.10;80.27
62402;BME280;48440;51.224;22.506;2023-02-13T10:03:47;100754.25;;;5.04;80.65
62402;BME280;48440;51.224;22.506;2023-02-13T10:11:26;100759.69;;;4.96;80.57
62402;BME280;48440;51.224;22.506;2023-02-13T10:14:22;100758.69;;;4.97;80.74
62402;BME280;48440;51.224;22.506;2023-02-13T10:17:01;100756.81;;;4.98;80.63
62402;BME280;48440;51.224;22.506;2023-02-13T10:22:51;100743.47;;;5.04;80.82
62402;BME280;48440;51.224;22.506;2023-02-13T10:25:33;100733.19;;;5.08;80.46
62402;BME280;48440;51.224;22.506;2023-02-13T10:28:14;100735.50;;;5.11;80.94
62402;BME280;48440;51.224;22.506;2023-02-13T10:30:57;100736.16;;;5.13;80.24
62402;BME280;48440;51.224;22.506;2023-02-13T10:33:53;100735.34;;;5.13;80.32
62402;BME280;48440;51.224;22.506;2023-02-13T10:36:26;100730.31;;;5.09;80.12
62402;BME280;48440;51.224;22.506;2023-02-13T10:47:23;100728.47;;;5.10;80.27
62402;BME280;48440;51.224;22.506;2023-02-13T11:00:54;100716.47;;;4.98;79.47
62402;BME280;48440;51.224;22.506;2023-02-13T11:03:26;100717.69;;;5.10;80.18
62402;BME280;48440;51.224;22.506;2023-02-13T11:05:53;100713.13;;;5.25;80.39
62402;BME280;48440;51.224;22.506;2023-02-13T11:10:47;100705.91;;;5.40;79.77
62402;BME280;48440;51.224;22.506;2023-02-13T11:13:19;100709.63;;;5.39;78.85
62402;BME280;48440;51.224;22.506;2023-02-13T11:16:04;100703.03;;;5.42;78.98
62402;BME280;48440;51.224;22.506;2023-02-13T11:18:32;100699.56;;;5.48;78.83
62402;BME280;48440;51.224;22.506;2023-02-13T11:23:36;100703.50;;;5.45;78.21
62402;BME280;48440;51.224;22.506;2023-02-13T11:26:08;100696.81;;;5.41;77.88
62402;BME280;48440;51.224;22.506;2023-02-13T11:28:37;100698.75;;;5.33;78.13
62402;BME280;48440;51.224;22.506;2023-02-13T11:31:11;100707.09;;;5.23;77.56
62402;BME280;48440;51.224;22.506;2023-02-13T11:33:39;100706.38;;;5.15;77.53
62402;BME280;48440;51.224;22.506;2023-02-13T11:36:10;100710.16;;;5.05;77.94
62402;BME280;48440;51.224;22.506;2023-02-13T11:38:38;100698.09;;;5.01;78.00
62402;BME280;48440;51.224;22.506;2023-02-13T11:43:43;100684.47;;;5.03;78.72
62402;BME280;48440;51.224;22.506;2023-02-13T11:48:40;100693.00;;;5.21;78.87
62402;BME280;48440;51.224;22.506;2023-02-13T11:51:07;100691.06;;;5.30;79.04
62402;BME280;48440;51.224;22.506;2023-02-13T11:53:38;100695.69;;;5.36;79.10
62402;BME280;48440;51.224;22.506;2023-02-13T11:56:11;100689.66;;;5.34;79.64
62402;BME280;48440;51.224;22.506;2023-02-13T11:58:38;100693.19;;;5.34;79.50
62402;BME280;48440;51.224;22.506;2023-02-13T12:04:17;100682.22;;;5.21;78.54
62402;BME280;48440;51.224;22.506;2023-02-13T12:07:19;100674.47;;;5.11;78.43
62402;BME280;48440;51.224;22.506;2023-02-13T12:09:44;100669.44;;;5.08;79.28
62402;BME280;48440;51.224;22.506;2023-02-13T12:12:18;100671.19;;;5.01;79.18
62402;BME280;48440;51.224;22.506;2023-02-13T12:14:46;100670.06;;;4.96;79.27
62402;BME280;48440;51.224;22.506;2023-02-13T12:17:22;100673.34;;;4.91;79.57
62402;BME280;48440;51.224;22.506;2023-02-13T12:19:50;100659.44;;;4.88;79.54
62402;BME280;48440;51.224;22.506;2023-02-13T12:22:25;100660.44;;;4.87;79.78
62402;BME280;48440;51.224;22.506;2023-02-13T12:36:30;100670.84;;;5.04;78.82
62402;BME280;48440;51.224;22.506;2023-02-13T12:39:25;100660.06;;;5.04;79.11
62402;BME280;48440;51.224;22.506;2023-02-13T12:47:14;100650.03;;;4.98;78.96
62402;BME280;48440;51.224;22.506;2023-02-13T12:50:02;100645.88;;;4.96;78.98
62402;BME280;48440;51.224;22.506;2023-02-13T13:23:35;100631.03;;;4.85;77.60
62402;BME280;48440;51.224;22.506;2023-02-13T13:28:23;100627.59;;;4.76;78.37
62402;BME280;48440;51.224;22.506;2023-02-13T13:30:51;100637.81;;;4.81;78.62
62402;BME280;48440;51.224;22.506;2023-02-13T13:33:26;100640.22;;;4.91;78.26
62402;BME280;48440;51.224;22.506;2023-02-13T13:42:26;100626.75;;;5.05;78.58
62402;BME280;48440;51.224;22.506;2023-02-13T13:52:25;100633.72;;;5.00;79.93
62402;BME280;48440;51.224;22.506;2023-02-13T13:54:51;100631.22;;;4.98;79.82
62402;BME280;48440;51.224;22.506;2023-02-13T14:07:43;100610.63;;;5.05;79.76
62402;BME280;48440;51.224;22.506;2023-02-13T14:33:56;100579.75;;;4.87;81.50
62402;BME280;48440;51.224;22.506;2023-02-13T14:36:36;100580.41;;;4.89;80.87
62402;BME280;48440;51.224;22.506;2023-02-13T14:39:19;100583.47;;;4.86;81.41
62402;BME280;48440;51.224;22.506;2023-02-13T14:44:23;100590.22;;;4.82;80.52
62402;BME280;48440;51.224;22.506;2023-02-13T14:46:51;100582.53;;;4.78;80.49
62402;BME280;48440;51.224;22.506;2023-02-13T14:49:44;100583.72;;;4.76;80.41
62402;BME280;48440;51.224;22.506;2023-02-13T14:52:25;100592.81;;;4.75;80.76
62402;BME280;48440;51.224;22.506;2023-02-13T14:54:55;100595.69;;;4.73;80.68
62402;BME280;48440;51.224;22.506;2023-02-13T14:57:37;100600.22;;;4.73;80.49
62402;BME280;48440;51.224;22.506;2023-02-13T15:00:14;100597.91;;;4.70;80.31
62402;BME280;48440;51.224;22.506;2023-02-13T15:02:46;100585.06;;;4.65;80.69
62402;BME280;48440;51.224;22.506;2023-02-13T15:05:15;100564.75;;;4.63;80.76
62402;BME280;48440;51.224;22.506;2023-02-13T15:07:47;100551.28;;;4.63;80.73
62402;BME280;48440;51.224;22.506;2023-02-13T15:10:52;100546.75;;;4.63;80.63
62402;BME280;48440;51.224;22.506;2023-02-13T15:13:31;100536.19;;;4.62;80.58
62402;BME280;48440;51.224;22.506;2023-02-13T15:16:06;100520.06;;;4.62;80.43
62402;BME280;48440;51.224;22.506;2023-02-13T15:18:50;100522.94;;;4.60;80.90
62402;BME280;48440;51.224;22.506;2023-02-13T15:21:21;100523.94;;;4.59;80.57
62402;BME280;48440;51.224;22.506;2023-02-13T15:23:50;100539.25;;;4.59;80.94
62402;BME280;48440;51.224;22.506;2023-02-13T15:26:20;100534.88;;;4.58;81.36
62402;BME280;48440;51.224;22.506;2023-02-13T15:29:12;100526.81;;;4.58;80.92
62402;BME280;48440;51.224;22.506;2023-02-13T15:31:39;100528.84;;;4.56;81.05
62402;BME280;48440;51.224;22.506;2023-02-13T15:34:20;100543.97;;;4.57;80.90
62402;BME280;48440;51.224;22.506;2023-02-13T15:36:46;100538.78;;;4.55;81.48
62402;BME280;48440;51.224;22.506;2023-02-13T15:39:18;100534.41;;;4.54;81.09
62402;BME280;48440;51.224;22.506;2023-02-13T15:41:48;100528.84;;;4.56;81.17
62402;BME280;48440;51.224;22.506;2023-02-13T15:44:36;100524.50;;;4.55;80.59
62402;BME280;48440;51.224;22.506;2023-02-13T15:47:26;100537.94;;;4.55;80.89
62402;BME280;48440;51.224;22.506;2023-02-13T15:49:53;100523.84;;;4.53;80.75
62402;BME280;48440;51.224;22.506;2023-02-13T15:54:52;100536.28;;;4.54;81.02
62402;BME280;48440;51.224;22.506;2023-02-13T15:57:19;100532.75;;;4.53;80.83
62402;BME280;48440;51.224;22.506;2023-02-13T15:59:46;100530.25;;;4.52;81.42
62402;BME280;48440;51.224;22.506;2023-02-13T16:02:39;100530.44;;;4.50;81.31
62402;BME280;48440;51.224;22.506;2023-02-13T16:05:06;100521.72;;;4.48;81.60
62402;BME280;48440;51.224;22.506;2023-02-13T16:10:35;100529.78;;;4.48;81.47
62402;BME280;48440;51.224;22.506;2023-02-13T16:13:05;100535.34;;;4.47;80.97
62402;BME280;48440;51.224;22.506;2023-02-13T16:15:34;100526.25;;;4.48;81.17